createdAt,value
2022-10-03T00:03:18.226Z,1.97
2022-10-03T00:08:50.533Z,2.23
2022-10-03T00:14:00.810Z,2.10
2022-10-03T00:19:29.640Z,3.10
2022-10-03T00:25:06.067Z,2.73
2022-10-03T00:30:24.602Z,3.00
2022-10-03T00:35:44.450Z,2.83
2022-10-03T00:40:58.278Z,2.87
2022-10-03T00:46:02.699Z,2.80
2022-10-03T00:51:32.360Z,2.00
2022-10-03T00:56:54.251Z,2.90
2022-10-03T01:01:58.094Z,1.97
2022-10-03T01:07:30.278Z,2.90
2022-10-03T01:13:18.519Z,3.10
2022-10-03T01:18:37.853Z,2.50
2022-10-03T01:24:11.696Z,2.73
2022-10-03T01:29:36.802Z,2.83
2022-10-03T01:34:55.626Z,2.83
2022-10-03T01:40:08.901Z,3.17
2022-10-03T01:45:46.595Z,2.60
2022-10-03T01:51:11.636Z,2.60
2022-10-03T01:56:21.515Z,3.00
2022-10-03T02:01:47.880Z,3.23
2022-10-03T02:06:55.658Z,3.20
2022-10-03T02:12:07.785Z,2.90
2022-10-03T02:17:21.502Z,2.63
2022-10-03T02:22:33.726Z,3.37
2022-10-03T02:28:05.934Z,2.63
2022-10-03T02:33:44.709Z,3.67
2022-10-03T02:39:07.334Z,2.87
2022-10-03T02:44:21.041Z,2.87
2022-10-03T02:49:25.681Z,3.93
2022-10-03T02:54:39.146Z,2.77
2022-10-03T03:00:17.437Z,3.37
2022-10-03T03:05:40.800Z,3.10
2022-10-03T03:11:39.602Z,2.70
2022-10-03T03:17:02.210Z,3.27
2022-10-03T03:22:25.406Z,3.33
2022-10-03T03:28:05.279Z,2.67
2022-10-03T03:33:40.298Z,3.30
2022-10-03T03:38:56.552Z,3.03
2022-10-03T03:44:20.217Z,2.47
2022-10-03T03:49:53.821Z,3.97
2022-10-03T03:54:58.373Z,3.33
2022-10-03T04:00:21.510Z,3.07
2022-10-03T04:05:54.746Z,3.60
2022-10-03T04:11:28.462Z,3.07
2022-10-03T04:17:34.149Z,3.53
2022-10-03T04:22:54.695Z,2.67
2022-10-03T04:28:22.391Z,2.73
2022-10-03T04:33:49.112Z,2.90
2022-10-03T04:39:11.222Z,3.53
2022-10-03T04:44:21.309Z,3.23
2022-10-03T04:49:39.122Z,3.17
2022-10-03T04:55:05.867Z,3.00
2022-10-03T05:00:23.678Z,3.77
2022-10-03T05:05:57.319Z,3.30
2022-10-03T05:11:25.501Z,3.40
2022-10-03T05:16:48.645Z,3.70
2022-10-03T05:22:17.154Z,3.00
2022-10-03T05:27:35.679Z,4.27
2022-10-03T05:32:57.103Z,2.97
2022-10-03T05:38:04.990Z,3.60
2022-10-03T05:43:06.619Z,3.80
2022-10-03T05:48:34.128Z,4.30
2022-10-03T05:53:45.129Z,4.13
2022-10-03T05:59:14.648Z,4.00
2022-10-03T06:04:38.840Z,4.30
2022-10-03T06:09:52.432Z,4.13
2022-10-03T06:15:06.311Z,3.77
2022-10-03T06:20:38.578Z,3.37
2022-10-03T06:26:29.654Z,3.20
2022-10-03T06:32:05.534Z,3.03
2022-10-03T06:37:40.239Z,3.23
2022-10-03T06:43:22.074Z,3.83
2022-10-03T06:48:50.368Z,4.63
2022-10-03T06:54:07.049Z,4.70
2022-10-03T06:59:32.641Z,3.80
2022-10-03T07:04:34.305Z,4.70
2022-10-03T07:10:03.918Z,5.53
2022-10-03T07:15:50.063Z,5.97
2022-10-03T07:20:59.171Z,4.93
2022-10-03T07:26:26.483Z,4.73
2022-10-03T07:32:05.998Z,5.20
2022-10-03T07:37:35.704Z,7.37
2022-10-03T07:43:01.786Z,6.50
2022-10-03T07:48:18.549Z,6.47
2022-10-03T07:54:04.775Z,6.23
2022-10-03T07:59:38.187Z,5.77
2022-10-03T08:04:43.000Z,6.83
2022-10-03T08:09:58.110Z,5.13
2022-10-03T08:15:20.676Z,5.50
2022-10-03T08:20:55.239Z,4.50
2022-10-03T08:26:18.482Z,5.23
2022-10-03T08:32:00.208Z,5.07
2022-10-03T08:37:31.359Z,4.43
2022-10-03T08:42:51.725Z,4.27
2022-10-03T08:48:02.262Z,4.80
2022-10-03T08:53:46.026Z,4.20
2022-10-03T08:59:18.586Z,4.47
2022-10-03T09:04:50.304Z,4.27
2022-10-03T09:10:21.572Z,4.70
2022-10-03T09:16:01.085Z,4.43
2022-10-03T09:21:24.937Z,3.93
2022-10-03T09:27:18.218Z,3.93
2022-10-03T09:32:39.066Z,3.00
2022-10-03T09:38:07.689Z,3.87
2022-10-03T09:43:21.793Z,3.90
2022-10-03T09:49:13.606Z,3.37
2022-10-03T09:54:24.051Z,3.13
2022-10-03T09:59:53.640Z,3.37
2022-10-03T10:04:56.424Z,2.97
2022-10-03T10:10:39.271Z,3.00
2022-10-03T10:16:29.758Z,2.83
2022-10-03T10:21:58.276Z,2.93
2022-10-03T10:27:36.554Z,2.37
2022-10-03T10:33:14.506Z,2.10
2022-10-03T10:38:27.118Z,2.03
2022-10-03T10:44:06.377Z,1.53
2022-10-03T10:49:39.300Z,2.10
2022-10-03T10:55:04.424Z,1.30
2022-10-03T11:00:22.222Z,2.00
2022-10-03T11:05:45.500Z,1.60
2022-10-03T11:11:11.915Z,2.33
2022-10-03T11:16:35.438Z,1.80
2022-10-03T11:22:25.961Z,1.70
2022-10-03T11:28:05.442Z,2.30
2022-10-03T11:33:50.040Z,2.03
2022-10-03T11:39:03.504Z,2.47
2022-10-03T11:44:35.193Z,2.03
2022-10-03T11:49:58.799Z,2.47
2022-10-03T11:55:21.227Z,2.30
2022-10-03T12:00:23.913Z,2.53
2022-10-03T12:05:48.578Z,1.93
2022-10-03T12:10:51.325Z,1.47
2022-10-03T12:15:55.293Z,2.03
2022-10-03T12:21:05.205Z,1.83
2022-10-03T12:26:08.374Z,1.20
2022-10-03T12:31:21.963Z,2.10
2022-10-03T12:36:33.104Z,1.53
2022-10-03T12:41:43.852Z,1.70
2022-10-03T12:47:03.132Z,2.07
2022-10-03T12:52:19.768Z,1.60
2022-10-03T12:57:40.015Z,1.83
2022-10-03T13:02:47.485Z,1.27
2022-10-03T13:07:53.973Z,2.27
2022-10-03T13:13:05.974Z,1.50
2022-10-03T13:18:12.884Z,2.27
2022-10-03T13:23:17.692Z,2.07
2022-10-03T13:28:39.877Z,1.17
2022-10-03T13:33:52.688Z,1.40
2022-10-03T13:39:05.362Z,1.80
2022-10-03T13:44:22.488Z,1.30
2022-10-03T13:49:32.256Z,1.23
2022-10-03T13:54:58.655Z,1.13
2022-10-03T14:00:12.845Z,2.90
2022-10-03T14:05:45.271Z,1.43
2022-10-03T14:11:04.415Z,1.40
2022-10-03T14:16:20.454Z,1.67
2022-10-03T14:21:40.780Z,0.87
2022-10-03T14:26:45.376Z,2.23
2022-10-03T14:31:59.424Z,0.80
2022-10-03T14:37:33.499Z,0.83
2022-10-03T14:42:54.154Z,2.37
2022-10-03T14:48:05.535Z,1.73
2022-10-03T14:53:23.866Z,1.67
2022-10-03T14:58:50.497Z,1.47
2022-10-03T15:04:04.958Z,1.20
2022-10-03T15:09:14.940Z,1.77
2022-10-03T15:14:16.820Z,1.53
2022-10-03T15:19:39.184Z,1.80
2022-10-03T15:24:41.466Z,1.20
2022-10-03T15:29:45.657Z,0.93
2022-10-03T15:34:50.115Z,1.90
2022-10-03T15:40:02.786Z,1.37
2022-10-03T15:45:41.469Z,1.70
2022-10-03T15:50:57.799Z,2.43
2022-10-03T15:56:23.375Z,4.90
2022-10-03T16:01:28.849Z,3.20
2022-10-03T16:06:49.307Z,4.47
2022-10-03T16:19:28.969Z,3.43
2022-10-03T16:24:21.266Z,3.47
2022-10-03T16:29:33.508Z,5.07
2022-10-03T16:34:49.415Z,2.33
2022-10-03T16:40:03.478Z,1.53
2022-10-03T16:45:10.121Z,1.70
2022-10-03T16:50:28.356Z,1.80
2022-10-03T16:55:35.781Z,1.37
2022-10-03T17:01:21.980Z,2.13
2022-10-03T17:06:26.488Z,1.73
2022-10-03T17:11:28.908Z,1.70
2022-10-03T17:16:44.004Z,2.57
2022-10-03T17:21:57.069Z,1.33
2022-10-03T17:27:03.088Z,1.93
2022-10-03T17:32:16.044Z,1.00
2022-10-03T17:37:42.786Z,1.37
2022-10-03T17:42:50.075Z,1.73
2022-10-03T17:48:42.781Z,2.47
2022-10-03T17:53:54.255Z,1.93
2022-10-03T17:59:06.696Z,1.30
2022-10-03T18:04:17.912Z,1.53
2022-10-03T18:09:30.812Z,1.30
2022-10-03T18:15:09.051Z,1.80
2022-10-03T18:20:21.353Z,1.80
2022-10-03T18:31:22.234Z,2.23
2022-10-03T18:36:38.066Z,2.70
2022-10-03T18:41:55.244Z,2.07
2022-10-03T18:47:21.273Z,2.47
2022-10-03T18:52:26.351Z,1.60
2022-10-03T18:57:40.466Z,1.67
2022-10-03T19:02:47.107Z,1.50
2022-10-03T19:08:11.695Z,2.20
2022-10-03T19:13:33.155Z,2.03
2022-10-03T19:18:57.040Z,1.80
2022-10-03T19:24:11.718Z,1.83
2022-10-03T19:29:25.689Z,1.80
2022-10-03T19:34:38.457Z,1.83
2022-10-03T19:39:40.219Z,2.13
2022-10-03T19:44:42.477Z,2.57
2022-10-03T19:50:02.382Z,2.33
2022-10-03T19:55:33.863Z,2.10
2022-10-03T20:00:37.581Z,2.50
2022-10-03T20:05:49.171Z,2.53
2022-10-03T20:11:26.858Z,2.47
2022-10-03T20:16:33.344Z,2.37
2022-10-03T20:21:36.443Z,2.90
2022-10-03T20:27:01.659Z,2.60
2022-10-03T20:32:12.723Z,3.13
2022-10-03T20:37:49.048Z,2.37
2022-10-03T20:42:53.364Z,2.67
2022-10-03T20:48:02.808Z,3.07
2022-10-03T20:53:16.928Z,3.50
2022-10-03T20:58:31.895Z,2.80
2022-10-03T21:03:35.790Z,2.23
2022-10-03T21:08:40.089Z,3.13
2022-10-03T21:13:52.335Z,2.90
2022-10-03T21:18:59.955Z,3.50
2022-10-03T21:24:04.716Z,3.97
2022-10-03T21:29:24.500Z,2.80
2022-10-03T21:34:53.997Z,3.20
2022-10-03T21:40:11.514Z,3.13
2022-10-03T21:45:47.975Z,2.93
2022-10-03T21:50:55.784Z,2.83
2022-10-03T21:56:22.125Z,3.77
2022-10-03T22:01:36.455Z,2.77
2022-10-03T22:07:16.904Z,4.13
2022-10-03T22:12:18.580Z,4.30
2022-10-03T22:17:29.499Z,3.40
2022-10-03T22:22:52.153Z,4.03
2022-10-03T22:28:08.060Z,4.37
2022-10-03T22:33:20.707Z,3.77
2022-10-03T22:38:25.040Z,3.17
2022-10-03T22:43:28.700Z,4.20
2022-10-03T22:48:41.684Z,3.60
2022-10-03T22:53:50.480Z,4.33
2022-10-03T22:58:52.517Z,3.40
2022-10-03T23:03:55.373Z,3.43
2022-10-03T23:09:23.950Z,3.60
2022-10-03T23:14:26.938Z,3.30
2022-10-03T23:19:40.565Z,4.03
2022-10-03T23:24:50.335Z,3.20
2022-10-03T23:30:23.883Z,3.37
2022-10-03T23:35:31.279Z,3.10
2022-10-03T23:40:46.896Z,3.03
2022-10-03T23:45:53.654Z,3.37
2022-10-03T23:51:04.375Z,3.73
2022-10-03T23:56:26.091Z,3.17
